sensor_id;sensor_type;location;lat;lon;timestamp;P1;durP1;ratioP1;P2;durP2;ratioP2
52964;SDS011;42923;53.220;6.528;2023-04-15T00:00:15;14.05;;;5.88;;
52964;SDS011;42923;53.220;6.528;2023-04-15T00:02:44;12.18;;;5.90;;
52964;SDS011;42923;53.220;6.528;2023-04-15T00:05:09;10.00;;;5.38;;
52964;SDS011;42923;53.220;6.528;2023-04-15T00:07:35;11.80;;;6.22;;
52964;SDS011;42923;53.220;6.528;2023-04-15T00:10:01;7.85;;;5.57;;
52964;SDS011;42923;53.220;6.528;2023-04-15T00:12:28;12.18;;;6.47;;
52964;SDS011;42923;53.220;6.528;2023-04-15T00:14:54;9.10;;;5.55;;
52964;SDS011;42923;53.220;6.528;2023-04-15T00:17:21;12.88;;;6.38;;
52964;SDS011;42923;53.220;6.528;2023-04-15T00:19:47;9.93;;;5.85;;
52964;SDS011;42923;53.220;6.528;2023-04-15T00:22:13;10.95;;;6.60;;
52964;SDS011;42923;53.220;6.528;2023-04-15T00:24:38;12.80;;;6.70;;
52964;SDS011;42923;53.220;6.528;2023-04-15T00:27:04;12.20;;;6.40;;
52964;SDS011;42923;53.220;6.528;2023-04-15T00:29:30;13.70;;;7.00;;
52964;SDS011;42923;53.220;6.528;2023-04-15T00:31:56;15.73;;;7.20;;
52964;SDS011;42923;53.220;6.528;2023-04-15T00:34:22;9.32;;;6.72;;
52964;SDS011;42923;53.220;6.528;2023-04-15T00:36:48;10.95;;;6.30;;
52964;SDS011;42923;53.220;6.528;2023-04-15T00:39:14;11.73;;;6.78;;
52964;SDS011;42923;53.220;6.528;2023-04-15T00:41:41;15.85;;;6.78;;
52964;SDS011;42923;53.220;6.528;2023-04-15T00:44:08;9.40;;;6.50;;
52964;SDS011;42923;53.220;6.528;2023-04-15T00:46:35;13.98;;;6.68;;
52964;SDS011;42923;53.220;6.528;2023-04-15T00:49:04;10.25;;;6.63;;
52964;SDS011;42923;53.220;6.528;2023-04-15T00:51:32;11.65;;;7.40;;
52964;SDS011;42923;53.220;6.528;2023-04-15T00:54:00;12.40;;;7.25;;
52964;SDS011;42923;53.220;6.528;2023-04-15T00:56:30;8.82;;;6.72;;
52964;SDS011;42923;53.220;6.528;2023-04-15T00:58:58;11.00;;;7.13;;
52964;SDS011;42923;53.220;6.528;2023-04-15T01:01:24;11.75;;;7.22;;
52964;SDS011;42923;53.220;6.528;2023-04-15T01:03:50;9.80;;;6.80;;
52964;SDS011;42923;53.220;6.528;2023-04-15T01:06:17;15.60;;;7.43;;
52964;SDS011;42923;53.220;6.528;2023-04-15T01:08:43;12.52;;;7.30;;
52964;SDS011;42923;53.220;6.528;2023-04-15T01:11:12;12.48;;;7.07;;
52964;SDS011;42923;53.220;6.528;2023-04-15T01:13:39;13.20;;;7.18;;
52964;SDS011;42923;53.220;6.528;2023-04-15T01:16:06;10.35;;;6.90;;
52964;SDS011;42923;53.220;6.528;2023-04-15T01:18:33;10.02;;;7.43;;
52964;SDS011;42923;53.220;6.528;2023-04-15T01:21:01;10.23;;;7.20;;
52964;SDS011;42923;53.220;6.528;2023-04-15T01:23:29;11.73;;;7.50;;
52964;SDS011;42923;53.220;6.528;2023-04-15T01:25:56;10.68;;;6.97;;
52964;SDS011;42923;53.220;6.528;2023-04-15T01:28:23;15.18;;;7.45;;
52964;SDS011;42923;53.220;6.528;2023-04-15T01:30:49;11.40;;;7.78;;
52964;SDS011;42923;53.220;6.528;2023-04-15T01:33:30;11.93;;;6.70;;
52964;SDS011;42923;53.220;6.528;2023-04-15T01:35:56;10.82;;;7.78;;
52964;SDS011;42923;53.220;6.528;2023-04-15T01:38:25;11.75;;;7.00;;
52964;SDS011;42923;53.220;6.528;2023-04-15T01:40:52;8.90;;;7.18;;
52964;SDS011;42923;53.220;6.528;2023-04-15T01:43:18;12.25;;;7.20;;
52964;SDS011;42923;53.220;6.528;2023-04-15T01:45:44;13.05;;;7.57;;
52964;SDS011;42923;53.220;6.528;2023-04-15T01:48:09;9.93;;;7.47;;
52964;SDS011;42923;53.220;6.528;2023-04-15T01:50:36;10.95;;;7.65;;
52964;SDS011;42923;53.220;6.528;2023-04-15T01:53:02;11.88;;;7.57;;
52964;SDS011;42923;53.220;6.528;2023-04-15T01:55:28;16.83;;;8.10;;
52964;SDS011;42923;53.220;6.528;2023-04-15T01:57:55;14.73;;;8.02;;
52964;SDS011;42923;53.220;6.528;2023-04-15T02:00:21;9.38;;;7.57;;
52964;SDS011;42923;53.220;6.528;2023-04-15T02:02:47;16.98;;;8.73;;
52964;SDS011;42923;53.220;6.528;2023-04-15T02:05:13;13.65;;;9.32;;
52964;SDS011;42923;53.220;6.528;2023-04-15T02:07:45;15.43;;;9.93;;
52964;SDS011;42923;53.220;6.528;2023-04-15T02:10:11;11.90;;;7.80;;
52964;SDS011;42923;53.220;6.528;2023-04-15T02:12:40;12.68;;;9.43;;
52964;SDS011;42923;53.220;6.528;2023-04-15T02:15:07;12.95;;;9.38;;
52964;SDS011;42923;53.220;6.528;2023-04-15T02:17:34;13.90;;;9.30;;
52964;SDS011;42923;53.220;6.528;2023-04-15T02:20:00;14.15;;;10.13;;
52964;SDS011;42923;53.220;6.528;2023-04-15T02:22:26;13.98;;;9.55;;
52964;SDS011;42923;53.220;6.528;2023-04-15T02:24:52;12.30;;;9.00;;
52964;SDS011;42923;53.220;6.528;2023-04-15T02:27:18;16.60;;;11.80;;
52964;SDS011;42923;53.220;6.528;2023-04-15T02:29:44;17.08;;;10.75;;
52964;SDS011;42923;53.220;6.528;2023-04-15T02:32:10;16.13;;;10.13;;
52964;SDS011;42923;53.220;6.528;2023-04-15T02:34:37;18.17;;;10.15;;
52964;SDS011;42923;53.220;6.528;2023-04-15T02:37:10;13.65;;;10.52;;
52964;SDS011;42923;53.220;6.528;2023-04-15T02:39:37;15.55;;;10.40;;
52964;SDS011;42923;53.220;6.528;2023-04-15T02:42:03;15.95;;;10.50;;
52964;SDS011;42923;53.220;6.528;2023-04-15T02:44:30;16.15;;;10.90;;
52964;SDS011;42923;53.220;6.528;2023-04-15T02:46:59;16.85;;;10.85;;
52964;SDS011;42923;53.220;6.528;2023-04-15T02:49:25;19.27;;;10.90;;
52964;SDS011;42923;53.220;6.528;2023-04-15T02:51:50;15.18;;;10.93;;
52964;SDS011;42923;53.220;6.528;2023-04-15T02:54:18;17.38;;;11.38;;
52964;SDS011;42923;53.220;6.528;2023-04-15T02:56:45;11.68;;;10.25;;
52964;SDS011;42923;53.220;6.528;2023-04-15T02:59:11;19.42;;;10.48;;
52964;SDS011;42923;53.220;6.528;2023-04-15T03:01:37;16.38;;;11.63;;
52964;SDS011;42923;53.220;6.528;2023-04-15T03:04:02;16.30;;;11.68;;
52964;SDS011;42923;53.220;6.528;2023-04-15T03:06:28;19.17;;;11.98;;
52964;SDS011;42923;53.220;6.528;2023-04-15T03:08:55;18.27;;;11.75;;
52964;SDS011;42923;53.220;6.528;2023-04-15T03:11:21;19.35;;;11.35;;
52964;SDS011;42923;53.220;6.528;2023-04-15T03:13:47;19.40;;;11.77;;
52964;SDS011;42923;53.220;6.528;2023-04-15T03:16:25;16.08;;;12.05;;
52964;SDS011;42923;53.220;6.528;2023-04-15T03:18:51;18.65;;;13.02;;
52964;SDS011;42923;53.220;6.528;2023-04-15T03:21:19;17.38;;;12.40;;
52964;SDS011;42923;53.220;6.528;2023-04-15T03:23:47;16.50;;;12.07;;
52964;SDS011;42923;53.220;6.528;2023-04-15T03:26:23;18.23;;;12.48;;
52964;SDS011;42923;53.220;6.528;2023-04-15T03:28:55;23.45;;;13.73;;
52964;SDS011;42923;53.220;6.528;2023-04-15T03:31:21;19.23;;;12.80;;
52964;SDS011;42923;53.220;6.528;2023-04-15T03:33:47;22.60;;;12.85;;
52964;SDS011;42923;53.220;6.528;2023-04-15T03:36:12;19.33;;;13.35;;
52964;SDS011;42923;53.220;6.528;2023-04-15T03:38:38;20.00;;;12.48;;
52964;SDS011;42923;53.220;6.528;2023-04-15T03:41:04;19.88;;;13.68;;
52964;SDS011;42923;53.220;6.528;2023-04-15T03:43:30;19.77;;;13.50;;
52964;SDS011;42923;53.220;6.528;2023-04-15T03:45:56;18.85;;;13.27;;
52964;SDS011;42923;53.220;6.528;2023-04-15T03:48:21;17.83;;;13.15;;
52964;SDS011;42923;53.220;6.528;2023-04-15T03:50:47;21.65;;;14.75;;
52964;SDS011;42923;53.220;6.528;2023-04-15T03:53:13;19.25;;;13.13;;
52964;SDS011;42923;53.220;6.528;2023-04-15T03:55:39;20.73;;;14.20;;
52964;SDS011;42923;53.220;6.528;2023-04-15T03:58:05;20.23;;;14.65;;
52964;SDS011;42923;53.220;6.528;2023-04-15T04:00:31;23.83;;;15.77;;
52964;SDS011;42923;53.220;6.528;2023-04-15T04:02:57;22.77;;;16.35;;
52964;SDS011;42923;53.220;6.528;2023-04-15T04:05:22;21.02;;;14.98;;
52964;SDS011;42923;53.220;6.528;2023-04-15T04:07:48;25.40;;;16.67;;
52964;SDS011;42923;53.220;6.528;2023-04-15T04:10:14;23.90;;;16.30;;
52964;SDS011;42923;53.220;6.528;2023-04-15T04:12:41;19.42;;;14.25;;
52964;SDS011;42923;53.220;6.528;2023-04-15T04:15:07;22.75;;;14.77;;
52964;SDS011;42923;53.220;6.528;2023-04-15T04:17:33;24.70;;;15.25;;
52964;SDS011;42923;53.220;6.528;2023-04-15T04:19:59;22.52;;;15.40;;
52964;SDS011;42923;53.220;6.528;2023-04-15T04:22:24;21.85;;;14.70;;
52964;SDS011;42923;53.220;6.528;2023-04-15T04:24:50;17.75;;;13.50;;
52964;SDS011;42923;53.220;6.528;2023-04-15T04:27:16;18.80;;;13.52;;
52964;SDS011;42923;53.220;6.528;2023-04-15T04:29:42;19.70;;;12.77;;
52964;SDS011;42923;53.220;6.528;2023-04-15T04:32:07;18.00;;;13.18;;
52964;SDS011;42923;53.220;6.528;2023-04-15T04:34:33;22.40;;;14.20;;
52964;SDS011;42923;53.220;6.528;2023-04-15T04:36:59;23.77;;;12.93;;
52964;SDS011;42923;53.220;6.528;2023-04-15T04:39:24;18.70;;;13.30;;
52964;SDS011;42923;53.220;6.528;2023-04-15T04:41:50;19.13;;;14.05;;
52964;SDS011;42923;53.220;6.528;2023-04-15T04:44:16;20.50;;;14.00;;
52964;SDS011;42923;53.220;6.528;2023-04-15T04:46:42;16.42;;;12.18;;
52964;SDS011;42923;53.220;6.528;2023-04-15T04:49:08;21.98;;;13.80;;
52964;SDS011;42923;53.220;6.528;2023-04-15T04:51:34;20.05;;;13.48;;
52964;SDS011;42923;53.220;6.528;2023-04-15T04:54:00;19.02;;;13.52;;
52964;SDS011;42923;53.220;6.528;2023-04-15T04:56:26;20.17;;;13.13;;
52964;SDS011;42923;53.220;6.528;2023-04-15T04:58:52;16.33;;;12.63;;
52964;SDS011;42923;53.220;6.528;2023-04-15T05:01:17;18.23;;;12.75;;
52964;SDS011;42923;53.220;6.528;2023-04-15T05:03:43;21.77;;;14.77;;
52964;SDS011;42923;53.220;6.528;2023-04-15T05:06:09;18.38;;;12.93;;
52964;SDS011;42923;53.220;6.528;2023-04-15T05:08:35;18.35;;;12.70;;
52964;SDS011;42923;53.220;6.528;2023-04-15T05:11:01;18.20;;;13.80;;
52964;SDS011;42923;53.220;6.528;2023-04-15T05:13:27;20.17;;;13.60;;
52964;SDS011;42923;53.220;6.528;2023-04-15T05:15:54;24.38;;;15.15;;
52964;SDS011;42923;53.220;6.528;2023-04-15T05:18:20;21.80;;;15.25;;
52964;SDS011;42923;53.220;6.528;2023-04-15T05:20:46;20.85;;;14.52;;
52964;SDS011;42923;53.220;6.528;2023-04-15T05:23:14;21.33;;;13.77;;
52964;SDS011;42923;53.220;6.528;2023-04-15T05:25:40;21.10;;;12.80;;
52964;SDS011;42923;53.220;6.528;2023-04-15T05:28:06;20.50;;;13.70;;
52964;SDS011;42923;53.220;6.528;2023-04-15T05:30:32;19.48;;;13.57;;
52964;SDS011;42923;53.220;6.528;2023-04-15T05:32:57;19.27;;;13.65;;
52964;SDS011;42923;53.220;6.528;2023-04-15T05:35:23;17.63;;;12.55;;
52964;SDS011;42923;53.220;6.528;2023-04-15T05:37:49;18.90;;;13.57;;
52964;SDS011;42923;53.220;6.528;2023-04-15T05:40:15;16.30;;;12.13;;
52964;SDS011;42923;53.220;6.528;2023-04-15T05:42:40;20.70;;;12.13;;
52964;SDS011;42923;53.220;6.528;2023-04-15T05:45:06;17.50;;;12.27;;
52964;SDS011;42923;53.220;6.528;2023-04-15T05:47:36;16.65;;;12.10;;
52964;SDS011;42923;53.220;6.528;2023-04-15T05:50:02;17.48;;;13.07;;
52964;SDS011;42923;53.220;6.528;2023-04-15T05:52:28;18.25;;;12.20;;
52964;SDS011;42923;53.220;6.528;2023-04-15T05:54:55;19.13;;;12.73;;
52964;SDS011;42923;53.220;6.528;2023-04-15T05:57:21;16.80;;;12.23;;
52964;SDS011;42923;53.220;6.528;2023-04-15T05:59:47;18.23;;;12.77;;
52964;SDS011;42923;53.220;6.528;2023-04-15T06:02:13;18.10;;;12.75;;
52964;SDS011;42923;53.220;6.528;2023-04-15T06:04:39;19.15;;;13.05;;
52964;SDS011;42923;53.220;6.528;2023-04-15T06:07:04;13.68;;;9.10;;
52964;SDS011;42923;53.220;6.528;2023-04-15T06:09:30;15.90;;;12.02;;
52964;SDS011;42923;53.220;6.528;2023-04-15T06:11:57;15.75;;;10.52;;
52964;SDS011;42923;53.220;6.528;2023-04-15T06:14:23;14.52;;;9.75;;
52964;SDS011;42923;53.220;6.528;2023-04-15T06:16:49;21.58;;;11.93;;
52964;SDS011;42923;53.220;6.528;2023-04-15T06:19:14;15.85;;;11.32;;
52964;SDS011;42923;53.220;6.528;2023-04-15T06:21:40;14.93;;;9.75;;
52964;SDS011;42923;53.220;6.528;2023-04-15T06:24:06;13.85;;;9.98;;
52964;SDS011;42923;53.220;6.528;2023-04-15T06:26:32;16.05;;;10.88;;
52964;SDS011;42923;53.220;6.528;2023-04-15T06:28:57;13.40;;;10.10;;
52964;SDS011;42923;53.220;6.528;2023-04-15T06:31:23;20.17;;;9.68;;
52964;SDS011;42923;53.220;6.528;2023-04-15T06:33:49;15.32;;;10.15;;
52964;SDS011;42923;53.220;6.528;2023-04-15T06:36:15;12.70;;;9.10;;
52964;SDS011;42923;53.220;6.528;2023-04-15T06:38:40;14.40;;;10.98;;
52964;SDS011;42923;53.220;6.528;2023-04-15T06:41:06;13.55;;;9.68;;
52964;SDS011;42923;53.220;6.528;2023-04-15T06:43:32;16.77;;;8.60;;
52964;SDS011;42923;53.220;6.528;2023-04-15T06:45:58;11.63;;;9.35;;
52964;SDS011;42923;53.220;6.528;2023-04-15T06:48:23;12.30;;;9.43;;
52964;SDS011;42923;53.220;6.528;2023-04-15T06:50:49;14.20;;;9.73;;
52964;SDS011;42923;53.220;6.528;2023-04-15T06:53:15;17.77;;;9.68;;
52964;SDS011;42923;53.220;6.528;2023-04-15T06:55:41;13.68;;;8.73;;
52964;SDS011;42923;53.220;6.528;2023-04-15T06:58:06;12.68;;;9.30;;
52964;SDS011;42923;53.220;6.528;2023-04-15T07:00:32;11.70;;;8.88;;
52964;SDS011;42923;53.220;6.528;2023-04-15T07:03:01;11.40;;;7.30;;
52964;SDS011;42923;53.220;6.528;2023-04-15T07:05:28;13.98;;;9.43;;
52964;SDS011;42923;53.220;6.528;2023-04-15T07:07:55;11.70;;;7.50;;
52964;SDS011;42923;53.220;6.528;2023-04-15T07:10:21;13.10;;;7.10;;
52964;SDS011;42923;53.220;6.528;2023-04-15T07:12:48;14.35;;;9.40;;
52964;SDS011;42923;53.220;6.528;2023-04-15T07:15:15;13.00;;;6.45;;
52964;SDS011;42923;53.220;6.528;2023-04-15T07:17:41;12.20;;;6.40;;
52964;SDS011;42923;53.220;6.528;2023-04-15T07:20:09;11.98;;;6.65;;
52964;SDS011;42923;53.220;6.528;2023-04-15T07:22:36;10.95;;;6.72;;
52964;SDS011;42923;53.220;6.528;2023-04-15T07:25:02;12.73;;;6.25;;
52964;SDS011;42923;53.220;6.528;2023-04-15T07:27:28;14.30;;;6.35;;
52964;SDS011;42923;53.220;6.528;2023-04-15T07:29:55;7.97;;;5.80;;
52964;SDS011;42923;53.220;6.528;2023-04-15T07:32:20;8.50;;;5.43;;
52964;SDS011;42923;53.220;6.528;2023-04-15T07:34:46;8.02;;;5.45;;
52964;SDS011;42923;53.220;6.528;2023-04-15T07:37:12;5.82;;;4.45;;
52964;SDS011;42923;53.220;6.528;2023-04-15T07:39:38;18.27;;;5.15;;
52964;SDS011;42923;53.220;6.528;2023-04-15T07:42:04;13.95;;;5.43;;
52964;SDS011;42923;53.220;6.528;2023-04-15T07:44:30;8.50;;;5.13;;
52964;SDS011;42923;53.220;6.528;2023-04-15T07:46:56;8.55;;;4.47;;
52964;SDS011;42923;53.220;6.528;2023-04-15T07:49:21;8.50;;;5.55;;
52964;SDS011;42923;53.220;6.528;2023-04-15T07:51:47;14.45;;;6.25;;
52964;SDS011;42923;53.220;6.528;2023-04-15T07:54:13;8.95;;;5.13;;
52964;SDS011;42923;53.220;6.528;2023-04-15T07:56:40;8.13;;;6.35;;
52964;SDS011;42923;53.220;6.528;2023-04-15T07:59:05;9.55;;;6.10;;
52964;SDS011;42923;53.220;6.528;2023-04-15T08:01:32;11.68;;;5.35;;
52964;SDS011;42923;53.220;6.528;2023-04-15T08:03:58;7.05;;;5.07;;
52964;SDS011;42923;53.220;6.528;2023-04-15T08:06:23;11.43;;;6.63;;
52964;SDS011;42923;53.220;6.528;2023-04-15T08:08:49;8.60;;;4.55;;
52964;SDS011;42923;53.220;6.528;2023-04-15T08:11:16;7.32;;;5.50;;
52964;SDS011;42923;53.220;6.528;2023-04-15T08:13:41;6.20;;;4.97;;
52964;SDS011;42923;53.220;6.528;2023-04-15T08:18:42;4.30;;;3.17;;
52964;SDS011;42923;53.220;6.528;2023-04-15T08:21:09;5.40;;;4.00;;
52964;SDS011;42923;53.220;6.528;2023-04-15T08:23:35;5.47;;;3.83;;
52964;SDS011;42923;53.220;6.528;2023-04-15T08:26:02;3.90;;;2.80;;
52964;SDS011;42923;53.220;6.528;2023-04-15T08:28:27;5.03;;;3.70;;
52964;SDS011;42923;53.220;6.528;2023-04-15T08:30:53;5.65;;;3.38;;
52964;SDS011;42923;53.220;6.528;2023-04-15T08:33:19;5.18;;;2.53;;
52964;SDS011;42923;53.220;6.528;2023-04-15T08:35:45;5.40;;;3.50;;
52964;SDS011;42923;53.220;6.528;2023-04-15T08:38:11;6.13;;;3.08;;
52964;SDS011;42923;53.220;6.528;2023-04-15T08:40:40;5.43;;;2.97;;
52964;SDS011;42923;53.220;6.528;2023-04-15T08:43:09;4.38;;;2.80;;
52964;SDS011;42923;53.220;6.528;2023-04-15T08:45:37;3.35;;;2.00;;
52964;SDS011;42923;53.220;6.528;2023-04-15T08:48:03;3.38;;;2.13;;
52964;SDS011;42923;53.220;6.528;2023-04-15T08:50:31;4.30;;;2.50;;
52964;SDS011;42923;53.220;6.528;2023-04-15T08:52:59;4.90;;;2.95;;
52964;SDS011;42923;53.220;6.528;2023-04-15T08:55:26;6.00;;;2.65;;
52964;SDS011;42923;53.220;6.528;2023-04-15T08:57:54;9.23;;;3.05;;
52964;SDS011;42923;53.220;6.528;2023-04-15T09:00:21;11.80;;;2.97;;
52964;SDS011;42923;53.220;6.528;2023-04-15T09:02:47;4.25;;;2.35;;
52964;SDS011;42923;53.220;6.528;2023-04-15T09:05:13;4.35;;;2.22;;
52964;SDS011;42923;53.220;6.528;2023-04-15T09:07:38;4.63;;;2.88;;
52964;SDS011;42923;53.220;6.528;2023-04-15T09:10:04;5.80;;;2.50;;
52964;SDS011;42923;53.220;6.528;2023-04-15T09:12:33;7.25;;;2.80;;
52964;SDS011;42923;53.220;6.528;2023-04-15T09:15:00;8.82;;;2.30;;
52964;SDS011;42923;53.220;6.528;2023-04-15T09:17:26;3.03;;;2.50;;
52964;SDS011;42923;53.220;6.528;2023-04-15T09:20:08;4.57;;;2.40;;
52964;SDS011;42923;53.220;6.528;2023-04-15T09:22:37;8.90;;;2.63;;
52964;SDS011;42923;53.220;6.528;2023-04-15T09:27:50;3.10;;;1.95;;
52964;SDS011;42923;53.220;6.528;2023-04-15T09:30:17;5.05;;;1.60;;
52964;SDS011;42923;53.220;6.528;2023-04-15T09:35:19;6.50;;;2.97;;
52964;SDS011;42923;53.220;6.528;2023-04-15T09:37:46;5.07;;;2.50;;
52964;SDS011;42923;53.220;6.528;2023-04-15T09:40:13;4.20;;;1.92;;
52964;SDS011;42923;53.220;6.528;2023-04-15T09:42:54;6.03;;;2.20;;
52964;SDS011;42923;53.220;6.528;2023-04-15T09:45:21;3.28;;;1.92;;
52964;SDS011;42923;53.220;6.528;2023-04-15T09:47:47;3.60;;;2.15;;
52964;SDS011;42923;53.220;6.528;2023-04-15T09:50:15;4.40;;;1.90;;
52964;SDS011;42923;53.220;6.528;2023-04-15T09:52:42;2.45;;;1.05;;
52964;SDS011;42923;53.220;6.528;2023-04-15T09:55:08;2.42;;;1.63;;
52964;SDS011;42923;53.220;6.528;2023-04-15T09:57:35;3.72;;;1.65;;
52964;SDS011;42923;53.220;6.528;2023-04-15T10:00:03;2.60;;;1.50;;
52964;SDS011;42923;53.220;6.528;2023-04-15T10:02:31;7.35;;;3.40;;
52964;SDS011;42923;53.220;6.528;2023-04-15T10:04:58;6.72;;;1.40;;
52964;SDS011;42923;53.220;6.528;2023-04-15T10:07:24;1.45;;;1.23;;
52964;SDS011;42923;53.220;6.528;2023-04-15T10:09:51;2.80;;;1.40;;
52964;SDS011;42923;53.220;6.528;2023-04-15T10:12:18;2.25;;;1.55;;
52964;SDS011;42923;53.220;6.528;2023-04-15T10:14:44;3.47;;;2.22;;
52964;SDS011;42923;53.220;6.528;2023-04-15T10:17:13;1.10;;;0.90;;
52964;SDS011;42923;53.220;6.528;2023-04-15T10:19:42;3.45;;;1.58;;
52964;SDS011;42923;53.220;6.528;2023-04-15T10:22:09;5.13;;;2.38;;
52964;SDS011;42923;53.220;6.528;2023-04-15T10:24:35;4.53;;;2.17;;
52964;SDS011;42923;53.220;6.528;2023-04-15T10:27:02;1.95;;;1.35;;
52964;SDS011;42923;53.220;6.528;2023-04-15T10:29:29;3.05;;;1.63;;
52964;SDS011;42923;53.220;6.528;2023-04-15T10:31:55;6.05;;;1.83;;
52964;SDS011;42923;53.220;6.528;2023-04-15T10:34:23;3.67;;;1.85;;
52964;SDS011;42923;53.220;6.528;2023-04-15T10:36:49;6.70;;;2.40;;
52964;SDS011;42923;53.220;6.528;2023-04-15T10:42:08;7.57;;;2.15;;
52964;SDS011;42923;53.220;6.528;2023-04-15T10:44:58;5.38;;;1.83;;
52964;SDS011;42923;53.220;6.528;2023-04-15T10:47:24;4.88;;;1.73;;
52964;SDS011;42923;53.220;6.528;2023-04-15T10:49:50;4.35;;;1.70;;
52964;SDS011;42923;53.220;6.528;2023-04-15T10:52:25;5.07;;;2.67;;
52964;SDS011;42923;53.220;6.528;2023-04-15T10:55:02;4.10;;;2.30;;
52964;SDS011;42923;53.220;6.528;2023-04-15T10:57:39;3.30;;;2.58;;
52964;SDS011;42923;53.220;6.528;2023-04-15T11:00:10;3.17;;;2.80;;
52964;SDS011;42923;53.220;6.528;2023-04-15T11:03:04;5.70;;;2.15;;
52964;SDS011;42923;53.220;6.528;2023-04-15T11:05:48;5.85;;;2.08;;
52964;SDS011;42923;53.220;6.528;2023-04-15T11:08:15;4.65;;;3.42;;
52964;SDS011;42923;53.220;6.528;2023-04-15T11:15:36;2.60;;;1.63;;
52964;SDS011;42923;53.220;6.528;2023-04-15T11:23:12;4.38;;;1.40;;
52964;SDS011;42923;53.220;6.528;2023-04-15T11:25:40;4.80;;;2.13;;
52964;SDS011;42923;53.220;6.528;2023-04-15T11:28:06;1.70;;;1.45;;
52964;SDS011;42923;53.220;6.528;2023-04-15T11:30:33;6.95;;;1.67;;
52964;SDS011;42923;53.220;6.528;2023-04-15T11:33:02;7.88;;;2.17;;
52964;SDS011;42923;53.220;6.528;2023-04-15T11:35:29;5.03;;;1.70;;
52964;SDS011;42923;53.220;6.528;2023-04-15T11:37:55;11.88;;;2.60;;
52964;SDS011;42923;53.220;6.528;2023-04-15T11:40:25;5.20;;;1.90;;
52964;SDS011;42923;53.220;6.528;2023-04-15T11:43:05;2.45;;;1.85;;
52964;SDS011;42923;53.220;6.528;2023-04-15T11:45:32;3.75;;;1.30;;
52964;SDS011;42923;53.220;6.528;2023-04-15T11:48:10;11.45;;;2.38;;
52964;SDS011;42923;53.220;6.528;2023-04-15T11:50:38;9.73;;;1.95;;
52964;SDS011;42923;53.220;6.528;2023-04-15T11:53:08;5.22;;;1.92;;
52964;SDS011;42923;53.220;6.528;2023-04-15T11:55:49;7.93;;;2.10;;
52964;SDS011;42923;53.220;6.528;2023-04-15T11:58:20;6.32;;;1.95;;
52964;SDS011;42923;53.220;6.528;2023-04-15T12:00:52;7.80;;;1.90;;
52964;SDS011;42923;53.220;6.528;2023-04-15T12:03:25;7.78;;;2.13;;
52964;SDS011;42923;53.220;6.528;2023-04-15T12:11:25;6.15;;;2.10;;
52964;SDS011;42923;53.220;6.528;2023-04-15T12:13:57;7.40;;;1.80;;
52964;SDS011;42923;53.220;6.528;2023-04-15T12:16:28;6.93;;;2.22;;
52964;SDS011;42923;53.220;6.528;2023-04-15T12:18:54;5.72;;;2.08;;
52964;SDS011;42923;53.220;6.528;2023-04-15T12:21:24;2.97;;;1.50;;
52964;SDS011;42923;53.220;6.528;2023-04-15T12:23:55;6.28;;;1.38;;
52964;SDS011;42923;53.220;6.528;2023-04-15T12:26:25;5.40;;;1.52;;
52964;SDS011;42923;53.220;6.528;2023-04-15T12:28:53;6.93;;;2.15;;
52964;SDS011;42923;53.220;6.528;2023-04-15T12:31:20;1.48;;;1.33;;
52964;SDS011;42923;53.220;6.528;2023-04-15T12:33:47;2.47;;;1.30;;
52964;SDS011;42923;53.220;6.528;2023-04-15T12:36:13;4.63;;;1.35;;
52964;SDS011;42923;53.220;6.528;2023-04-15T12:38:39;8.05;;;1.50;;
52964;SDS011;42923;53.220;6.528;2023-04-15T12:41:05;7.38;;;2.10;;
52964;SDS011;42923;53.220;6.528;2023-04-15T12:43:31;8.23;;;2.17;;
52964;SDS011;42923;53.220;6.528;2023-04-15T12:45:56;5.43;;;1.55;;
52964;SDS011;42923;53.220;6.528;2023-04-15T12:48:22;4.85;;;1.23;;
52964;SDS011;42923;53.220;6.528;2023-04-15T12:50:48;3.45;;;1.30;;
52964;SDS011;42923;53.220;6.528;2023-04-15T12:53:14;7.50;;;3.25;;
52964;SDS011;42923;53.220;6.528;2023-04-15T12:55:39;6.25;;;1.30;;
52964;SDS011;42923;53.220;6.528;2023-04-15T12:58:05;3.80;;;1.90;;
52964;SDS011;42923;53.220;6.528;2023-04-15T13:00:32;2.20;;;1.60;;
52964;SDS011;42923;53.220;6.528;2023-04-15T13:02:59;3.28;;;1.55;;
52964;SDS011;42923;53.220;6.528;2023-04-15T13:05:24;9.65;;;2.55;;
52964;SDS011;42923;53.220;6.528;2023-04-15T13:07:50;4.47;;;1.77;;
52964;SDS011;42923;53.220;6.528;2023-04-15T13:10:16;6.57;;;1.60;;
52964;SDS011;42923;53.220;6.528;2023-04-15T13:12:42;11.80;;;2.55;;
52964;SDS011;42923;53.220;6.528;2023-04-15T13:15:12;5.25;;;1.52;;
52964;SDS011;42923;53.220;6.528;2023-04-15T13:17:38;8.57;;;2.35;;
52964;SDS011;42923;53.220;6.528;2023-04-15T13:20:04;11.00;;;2.25;;
52964;SDS011;42923;53.220;6.528;2023-04-15T13:22:31;5.20;;;2.25;;
52964;SDS011;42923;53.220;6.528;2023-04-15T13:24:57;8.57;;;2.83;;
52964;SDS011;42923;53.220;6.528;2023-04-15T13:27:23;12.60;;;2.05;;
52964;SDS011;42923;53.220;6.528;2023-04-15T13:29:48;6.60;;;1.80;;
52964;SDS011;42923;53.220;6.528;2023-04-15T13:32:14;4.85;;;2.10;;
52964;SDS011;42923;53.220;6.528;2023-04-15T13:34:39;4.50;;;1.92;;
52964;SDS011;42923;53.220;6.528;2023-04-15T13:37:08;5.55;;;1.70;;
52964;SDS011;42923;53.220;6.528;2023-04-15T13:39:34;7.22;;;2.30;;
52964;SDS011;42923;53.220;6.528;2023-04-15T13:42:00;6.90;;;1.58;;
52964;SDS011;42923;53.220;6.528;2023-04-15T13:44:27;4.35;;;2.45;;
52964;SDS011;42923;53.220;6.528;2023-04-15T13:46:52;6.07;;;1.83;;
52964;SDS011;42923;53.220;6.528;2023-04-15T13:49:18;5.32;;;1.90;;
52964;SDS011;42923;53.220;6.528;2023-04-15T13:51:44;7.05;;;1.88;;
52964;SDS011;42923;53.220;6.528;2023-04-15T13:54:10;8.35;;;2.13;;
52964;SDS011;42923;53.220;6.528;2023-04-15T13:56:35;8.98;;;1.55;;
52964;SDS011;42923;53.220;6.528;2023-04-15T13:59:01;8.80;;;2.25;;
52964;SDS011;42923;53.220;6.528;2023-04-15T14:01:27;8.48;;;2.40;;
52964;SDS011;42923;53.220;6.528;2023-04-15T14:03:53;11.55;;;2.15;;
52964;SDS011;42923;53.220;6.528;2023-04-15T14:06:20;7.30;;;2.50;;
52964;SDS011;42923;53.220;6.528;2023-04-15T14:08:45;10.95;;;2.83;;
52964;SDS011;42923;53.220;6.528;2023-04-15T14:11:11;7.97;;;2.13;;
52964;SDS011;42923;53.220;6.528;2023-04-15T14:13:37;7.57;;;2.22;;
52964;SDS011;42923;53.220;6.528;2023-04-15T14:16:03;8.80;;;2.03;;
52964;SDS011;42923;53.220;6.528;2023-04-15T14:18:29;12.20;;;2.03;;
52964;SDS011;42923;53.220;6.528;2023-04-15T14:20:55;5.15;;;2.00;;
52964;SDS011;42923;53.220;6.528;2023-04-15T14:23:21;10.93;;;2.47;;
52964;SDS011;42923;53.220;6.528;2023-04-15T14:25:47;10.38;;;2.67;;
52964;SDS011;42923;53.220;6.528;2023-04-15T14:28:14;8.05;;;1.95;;
52964;SDS011;42923;53.220;6.528;2023-04-15T14:30:40;9.55;;;2.20;;
52964;SDS011;42923;53.220;6.528;2023-04-15T14:33:05;10.30;;;2.60;;
52964;SDS011;42923;53.220;6.528;2023-04-15T14:35:31;14.43;;;2.88;;
52964;SDS011;42923;53.220;6.528;2023-04-15T14:37:57;9.32;;;3.35;;
52964;SDS011;42923;53.220;6.528;2023-04-15T14:40:23;12.27;;;2.15;;
52964;SDS011;42923;53.220;6.528;2023-04-15T14:42:48;12.20;;;3.55;;
52964;SDS011;42923;53.220;6.528;2023-04-15T14:45:14;8.55;;;2.30;;
52964;SDS011;42923;53.220;6.528;2023-04-15T14:47:40;7.57;;;2.35;;
52964;SDS011;42923;53.220;6.528;2023-04-15T14:50:06;11.38;;;3.03;;
52964;SDS011;42923;53.220;6.528;2023-04-15T14:52:32;15.45;;;2.25;;
52964;SDS011;42923;53.220;6.528;2023-04-15T14:55:11;10.10;;;2.83;;
52964;SDS011;42923;53.220;6.528;2023-04-15T14:57:38;15.55;;;2.85;;
52964;SDS011;42923;53.220;6.528;2023-04-15T15:00:05;14.27;;;2.88;;